Time;durP1;ratioP1;P1;durP2;ratioP2;P2;SDS_P1;SDS_P2;PMS_P1;PMS_P2;Temp;Humidity;BMP_temperature;BMP_pressure;BME280_temperature;BME280_humidity;BME280_pressure;Samples;Min_cycle;Max_cycle;Signal;HPM_P1;HPM_P2
2023/05/19 00:01:21;;;;;;;6.90;2.20;;;;;;;-145.69;100.00;52404.78;5063169;28;20223;-86
2023/05/19 00:03:53;;;;;;;7.37;2.23;;;;;;;-145.69;100.00;52408.75;5065487;28;20229;-84
2023/05/19 00:06:24;;;;;;;10.30;2.60;;;;;;;-145.69;100.00;52438.44;5060485;28;20272;-86
2023/05/19 00:08:57;;;;;;;6.03;2.30;;;;;;;-145.69;100.00;52406.75;5059438;28;20207;-86
2023/05/19 00:11:27;;;;;;;8.47;2.23;;;;;;;-145.69;100.00;52416.66;5061528;28;20207;-86
2023/05/19 00:13:54;;;;;;;8.53;2.27;;;;;;;-145.69;100.00;52428.53;5062978;28;20253;-85
2023/05/19 00:16:22;;;;;;;8.73;2.47;;;;;;;-145.69;100.00;52428.53;5057844;28;20195;-86
2023/05/19 00:18:48;;;;;;;14.47;2.57;;;;;;;-145.69;100.00;52400.81;5058426;28;20214;-86
2023/05/19 00:21:17;;;;;;;8.47;2.80;;;;;;;-145.69;100.00;52420.63;5057974;28;20277;-87
2023/05/19 00:23:44;;;;;;;5.90;2.33;;;;;;;-145.69;99.15;52377.06;5056853;28;20226;-85
2023/05/19 00:26:10;;;;;;;10.53;2.70;;;;;;;-145.69;99.88;52404.78;5057763;28;20199;-85
2023/05/19 00:28:38;;;;;;;9.30;2.20;;;;;;;-145.69;100.00;52442.41;5057009;28;20191;-84
2023/05/19 00:31:06;;;;;;;7.63;2.40;;;;;;;-145.69;100.00;52440.44;5057819;28;20214;-85
2023/05/19 00:33:33;;;;;;;9.50;2.20;;;;;;;-145.69;100.00;52406.75;5057192;28;20266;-83
2023/05/19 00:36:01;;;;;;;8.90;2.63;;;;;;;-145.69;100.00;52418.63;5059432;28;20601;-87
2023/05/19 00:38:28;;;;;;;8.77;1.80;;;;;;;-145.69;100.00;52408.75;5056313;28;20681;-84
2023/05/19 00:40:54;;;;;;;9.60;2.30;;;;;;;-145.69;99.97;52422.59;5055742;28;20231;-84
2023/05/19 00:43:21;;;;;;;8.53;2.10;;;;;;;-145.69;100.00;52400.81;5056657;28;20204;-86
2023/05/19 00:45:49;;;;;;;7.33;2.20;;;;;;;-145.69;100.00;52412.69;5055379;28;20662;-84
2023/05/19 00:48:16;;;;;;;7.07;1.87;;;;;;;-145.69;100.00;52448.34;5056794;28;20239;-85
2023/05/19 00:50:43;;;;;;;4.87;2.07;;;;;;;-145.69;98.84;52396.84;5057408;28;20207;-85
2023/05/19 00:53:10;;;;;;;6.17;2.10;;;;;;;-145.69;98.76;52406.75;5055749;28;20199;-85
2023/05/19 00:55:39;;;;;;;7.77;2.50;;;;;;;-145.69;98.27;52420.63;5060687;28;20201;-86
2023/05/19 00:58:06;;;;;;;6.67;2.10;;;;;;;-145.69;99.46;52406.75;5077337;28;20195;-87
2023/05/19 01:00:34;;;;;;;5.80;2.27;;;;;;;-145.69;99.18;52414.69;5075335;28;20649;-86
2023/05/19 01:03:02;;;;;;;8.77;2.43;;;;;;;-145.69;99.23;52420.63;5040659;28;20204;-81
2023/05/19 01:05:28;;;;;;;10.20;2.50;;;;;;;-145.69;100.00;52452.31;5067203;28;20221;-85
2023/05/19 01:07:55;;;;;;;6.97;2.03;;;;;;;-145.69;100.00;52424.59;5075796;28;20210;-85
2023/05/19 01:10:22;;;;;;;12.53;2.47;;;;;;;-145.69;100.00;52390.91;5076951;28;20210;-86
2023/05/19 01:12:49;;;;;;;6.83;2.47;;;;;;;-145.69;99.67;52452.31;5074332;28;20202;-86
2023/05/19 01:15:15;;;;;;;8.07;2.33;;;;;;;-145.69;100.00;52400.81;5056353;28;20214;-84
2023/05/19 01:17:49;;;;;;;10.97;2.10;;;;;;;-145.69;100.00;52420.63;5056099;28;20685;-85
2023/05/19 01:20:22;;;;;;;6.10;2.03;;;;;;;-145.69;100.00;52420.63;5056792;28;20200;-86
2023/05/19 01:23:23;;;;;;;6.60;2.13;;;;;;;-145.69;100.00;52416.66;5055671;28;20227;-86
2023/05/19 01:26:17;;;;;;;11.20;2.60;;;;;;;-145.69;100.00;52416.66;5055699;28;20428;-85
2023/05/19 01:29:02;;;;;;;8.60;2.23;;;;;;;-145.69;100.00;52448.34;5055187;28;20199;-87
2023/05/19 01:31:31;;;;;;;5.13;2.30;;;;;;;-145.69;100.00;52406.75;5055602;28;20203;-82
2023/05/19 01:33:59;;;;;;;11.37;2.30;;;;;;;-145.69;100.00;52424.59;5055613;28;20257;-85
2023/05/19 01:36:26;;;;;;;12.83;2.40;;;;;;;-145.69;100.00;52434.47;5056118;28;20199;-85
2023/05/19 01:38:57;;;;;;;9.17;2.50;;;;;;;-145.69;100.00;52420.63;5054981;28;20210;-86
2023/05/19 01:41:25;;;;;;;9.43;2.40;;;;;;;-145.69;100.00;52422.59;5056354;28;20227;-85
2023/05/19 01:43:53;;;;;;;6.47;2.27;;;;;;;-145.69;100.00;52416.66;5057167;28;20199;-86
2023/05/19 01:46:20;;;;;;;6.33;2.10;;;;;;;-145.69;100.00;52381.00;5056703;28;20294;-84
2023/05/19 01:48:49;;;;;;;6.17;2.27;;;;;;;-145.69;100.00;52408.75;5055370;28;20582;-85
2023/05/19 01:51:15;;;;;;;14.47;2.57;;;;;;;-145.69;100.00;52432.50;5056554;28;20207;-85
2023/05/19 01:53:42;;;;;;;11.17;2.30;;;;;;;-145.69;100.00;52396.84;5057527;28;20207;-86
2023/05/19 01:56:10;;;;;;;10.83;2.33;;;;;;;-145.69;100.00;52408.75;5059096;28;20202;-85
2023/05/19 01:58:44;;;;;;;8.40;2.30;;;;;;;-145.69;100.00;52396.84;5056512;28;20566;-85
2023/05/19 02:01:21;;;;;;;7.73;2.50;;;;;;;-145.69;100.00;52416.66;5060757;28;20229;-86
2023/05/19 02:04:02;;;;;;;8.53;2.77;;;;;;;-145.69;100.00;52448.34;5073045;28;20206;-87
2023/05/19 02:06:41;;;;;;;6.27;2.13;;;;;;;-145.69;100.00;52404.78;5055829;28;20223;-85
2023/05/19 02:09:13;;;;;;;9.97;2.53;;;;;;;-145.69;100.00;52414.69;5055514;28;20199;-84
2023/05/19 02:11:46;;;;;;;4.43;2.00;;;;;;;-145.69;100.00;52392.91;5048965;28;20207;-84
2023/05/19 02:14:18;;;;;;;6.07;2.27;;;;;;;-145.69;100.00;52388.94;5071670;28;20236;-85
2023/05/19 02:16:47;;;;;;;6.73;2.53;;;;;;;-145.69;100.00;52454.28;5074144;28;20205;-85
2023/05/19 02:19:27;;;;;;;4.03;2.17;;;;;;;-145.69;100.00;52412.69;5074961;28;20203;-84
2023/05/19 02:21:54;;;;;;;7.87;2.57;;;;;;;-145.69;100.00;52404.78;5074003;28;20320;-85
2023/05/19 02:24:21;;;;;;;8.93;2.40;;;;;;;-145.69;100.00;52424.59;5075745;28;20203;-85
2023/05/19 02:26:48;;;;;;;6.90;2.63;;;;;;;-145.69;100.00;52424.59;5074151;28;20234;-85
2023/05/19 02:29:15;;;;;;;5.63;2.20;;;;;;;-145.69;100.00;52440.44;5074104;28;20210;-86
2023/05/19 02:31:41;;;;;;;4.90;2.33;;;;;;;-145.69;100.00;52416.66;5074720;28;20569;-87
2023/05/19 02:34:08;;;;;;;6.83;2.67;;;;;;;-145.69;100.00;52408.75;5077267;28;20206;-87
2023/05/19 02:36:36;;;;;;;9.40;2.43;;;;;;;-145.69;100.00;52392.91;5075314;28;20690;-84
2023/05/19 02:39:03;;;;;;;4.10;2.23;;;;;;;-145.69;100.00;52424.59;5075506;28;20202;-80
2023/05/19 02:41:30;;;;;;;3.60;1.87;;;;;;;-145.69;100.00;52420.63;5072972;28;20226;-85
2023/05/19 02:43:57;;;;;;;5.83;2.53;;;;;;;-145.69;100.00;52416.66;5060361;28;20195;-83
2023/05/19 02:46:24;;;;;;;6.60;2.90;;;;;;;-145.69;100.00;52432.50;5054511;28;20477;-85
2023/05/19 02:48:50;;;;;;;6.33;2.60;;;;;;;-145.69;100.00;52430.53;5054007;28;20223;-83
2023/05/19 02:51:17;;;;;;;3.83;2.40;;;;;;;-145.69;100.00;52452.31;5059952;28;20201;-85
2023/05/19 02:53:45;;;;;;;3.17;2.17;;;;;;;-145.69;100.00;52444.38;5065166;28;20559;-87
2023/05/19 02:56:11;;;;;;;6.13;2.50;;;;;;;-145.69;100.00;52448.34;5054514;28;20210;-85
2023/05/19 02:58:38;;;;;;;4.27;2.23;;;;;;;-145.69;100.00;52468.16;5044692;28;20328;-87
2023/05/19 03:01:05;;;;;;;11.27;2.47;;;;;;;-145.69;100.00;52404.78;5042489;28;20198;-85
2023/05/19 03:03:31;;;;;;;3.97;2.37;;;;;;;-145.69;100.00;52404.78;5054440;28;20562;-79
2023/05/19 03:05:58;;;;;;;5.27;2.70;;;;;;;-145.69;100.00;52432.50;5053834;28;20226;-83
2023/05/19 03:08:25;;;;;;;5.67;2.13;;;;;;;-145.69;100.00;52420.63;5053361;28;20204;-85
2023/05/19 03:10:53;;;;;;;5.27;2.60;;;;;;;-145.69;100.00;52428.53;5055006;28;20277;-86
2023/05/19 03:13:19;;;;;;;6.13;2.43;;;;;;;-145.69;100.00;52412.69;5054214;28;20207;-84
2023/05/19 03:15:46;;;;;;;7.07;2.40;;;;;;;-145.69;100.00;52406.75;5053783;28;20286;-85
2023/05/19 03:18:12;;;;;;;7.97;2.43;;;;;;;-145.69;100.00;52452.31;5054468;28;20203;-84
2023/05/19 03:20:41;;;;;;;5.20;2.53;;;;;;;-145.69;100.00;52444.38;5053872;28;20613;-85
2023/05/19 03:23:07;;;;;;;6.20;2.90;;;;;;;-145.69;100.00;52448.34;5054636;28;20223;-84
2023/05/19 03:25:34;;;;;;;5.70;2.43;;;;;;;-145.69;100.00;52432.50;5052807;28;20662;-81
2023/05/19 03:28:02;;;;;;;3.97;2.50;;;;;;;-145.69;100.00;52464.19;5054688;28;20214;-87
2023/05/19 03:30:28;;;;;;;8.20;2.57;;;;;;;-145.69;100.00;52452.31;5054554;28;20229;-84
2023/05/19 03:32:55;;;;;;;7.80;2.70;;;;;;;-145.69;100.00;52432.50;5058130;28;20199;-86
2023/05/19 03:35:22;;;;;;;6.80;2.20;;;;;;;-145.69;100.00;52418.63;5074234;28;20214;-85
2023/05/19 03:37:48;;;;;;;7.50;2.50;;;;;;;-145.69;100.00;52404.78;5074439;28;20203;-86
2023/05/19 03:40:17;;;;;;;5.70;2.70;;;;;;;-145.69;100.00;52444.38;5074622;28;20734;-84
2023/05/19 03:42:44;;;;;;;7.23;2.47;;;;;;;-145.69;100.00;52424.59;5058323;28;20231;-87
2023/05/19 03:45:12;;;;;;;5.63;2.70;;;;;;;-145.69;100.00;52410.72;5034690;28;20246;-82
2023/05/19 03:47:38;;;;;;;6.73;2.37;;;;;;;-145.69;100.00;52472.13;5034250;28;20204;-84
2023/05/19 03:50:06;;;;;;;5.47;2.13;;;;;;;-145.69;100.00;52428.53;5036557;28;20232;-86
2023/05/19 03:52:33;;;;;;;6.33;2.43;;;;;;;-145.69;100.00;52448.34;5038243;28;20594;-85
2023/05/19 03:54:59;;;;;;;7.10;2.47;;;;;;;-145.69;100.00;52436.47;5038006;28;20254;-86
2023/05/19 03:57:26;;;;;;;6.73;2.60;;;;;;;-145.69;100.00;52416.66;5038980;28;20200;-86
2023/05/19 03:59:52;;;;;;;3.23;2.00;;;;;;;-145.69;100.00;52440.44;5038942;28;20208;-84
2023/05/19 04:02:21;;;;;;;4.10;2.27;;;;;;;-145.69;100.00;52444.38;5037266;28;20250;-85
2023/05/19 04:04:47;;;;;;;5.30;2.20;;;;;;;-145.69;100.00;52424.59;5076378;28;20199;-85
2023/05/19 04:07:14;;;;;;;7.70;3.00;;;;;;;-145.69;100.00;52430.53;5077676;28;20641;-87
2023/05/19 04:09:40;;;;;;;3.73;2.47;;;;;;;-145.69;100.00;52462.22;5077508;28;20602;-86
2023/05/19 04:12:07;;;;;;;7.57;2.83;;;;;;;-145.69;100.00;52420.63;5067555;28;20598;-85
2023/05/19 04:14:34;;;;;;;7.80;2.47;;;;;;;-145.69;100.00;52426.56;5058446;28;20658;-84
2023/05/19 04:17:00;;;;;;;5.83;2.80;;;;;;;-145.69;100.00;52456.28;5058625;28;20222;-85
2023/05/19 04:22:09;;;;;;;5.23;2.80;;;;;;;-145.69;100.00;52472.13;5059622;28;20285;-84
2023/05/19 04:24:35;;;;;;;4.00;2.40;;;;;;;-145.69;100.00;52428.53;5057547;28;20206;-86
2023/05/19 04:27:03;;;;;;;10.33;2.73;;;;;;;-145.69;100.00;52470.13;5057185;28;20195;-86
2023/05/19 04:29:31;;;;;;;6.97;3.03;;;;;;;-145.69;100.00;52440.44;5056223;28;20203;-84
2023/05/19 04:31:58;;;;;;;3.53;2.30;;;;;;;-145.69;100.00;52424.59;5056165;28;20243;-85
2023/05/19 04:34:24;;;;;;;7.20;3.07;;;;;;;-145.69;100.00;52440.44;5071994;28;20244;-85
2023/05/19 04:36:52;;;;;;;5.97;2.87;;;;;;;-145.69;100.00;52430.53;5077235;28;20209;-85
2023/05/19 04:39:19;;;;;;;8.93;2.90;;;;;;;-145.69;100.00;52430.53;5078839;28;20199;-83
2023/05/19 04:41:47;;;;;;;9.33;3.23;;;;;;;-145.69;100.00;52460.22;5068956;28;20206;-86
2023/05/19 04:44:16;;;;;;;7.83;3.30;;;;;;;-145.69;100.00;52430.53;5056112;28;20607;-86
2023/05/19 04:46:44;;;;;;;10.87;4.10;;;;;;;-145.69;100.00;52420.63;5056026;28;20203;-85
2023/05/19 04:49:11;;;;;;;9.33;3.60;;;;;;;-145.69;100.00;52424.59;5057203;28;20242;-86
2023/05/19 04:51:40;;;;;;;5.60;2.97;;;;;;;-145.69;100.00;52424.59;5073086;28;20191;-85
2023/05/19 04:54:08;;;;;;;6.70;3.30;;;;;;;-145.69;100.00;52404.78;5076367;28;20194;-87
2023/05/19 04:56:35;;;;;;;9.77;3.20;;;;;;;-145.69;100.00;52450.31;5044497;28;20208;-86
2023/05/19 04:59:02;;;;;;;8.33;3.20;;;;;;;-145.69;100.00;52440.44;5052620;28;20199;-87
2023/05/19 05:01:29;;;;;;;6.77;3.20;;;;;;;-145.69;100.00;52424.59;5073865;28;20253;-85
2023/05/19 05:03:57;;;;;;;12.10;3.60;;;;;;;-145.69;100.00;52428.53;5055178;28;20229;-85
2023/05/19 05:06:24;;;;;;;5.67;3.13;;;;;;;-145.69;100.00;52434.47;5057907;28;20199;-84
2023/05/19 05:08:51;;;;;;;5.77;2.73;;;;;;;-145.69;100.00;52452.31;5056837;28;20203;-87
2023/05/19 05:11:20;;;;;;;4.17;2.40;;;;;;;-145.69;100.00;52408.75;5057201;28;20698;-87
2023/05/19 05:13:48;;;;;;;7.27;3.17;;;;;;;-145.69;100.00;52392.91;5055839;28;20231;-86
2023/05/19 05:16:15;;;;;;;6.10;2.93;;;;;;;-145.69;100.00;52373.09;5056949;28;20239;-87
2023/05/19 05:18:42;;;;;;;9.90;2.60;;;;;;;-145.69;100.00;52414.69;5056454;28;20313;-85
2023/05/19 05:21:09;;;;;;;9.17;2.90;;;;;;;-145.69;100.00;52361.22;5056160;28;20554;-81
2023/05/19 05:23:37;;;;;;;6.70;2.43;;;;;;;-145.69;100.00;52412.69;5055570;28;20223;-87
2023/05/19 05:26:10;;;;;;;4.47;2.67;;;;;;;-145.69;100.00;52420.63;5057097;28;20207;-84
2023/05/19 05:28:38;;;;;;;5.40;2.73;;;;;;;-145.69;100.00;52408.75;5055200;28;20219;-85
2023/05/19 05:31:05;;;;;;;9.07;2.53;;;;;;;-145.69;100.00;52388.94;5056832;28;20203;-86
2023/05/19 05:33:31;;;;;;;6.83;2.47;;;;;;;-145.69;99.34;52406.75;5055744;28;20650;-85
2023/05/19 05:35:58;;;;;;;4.80;2.43;;;;;;;-145.69;98.89;52416.66;5054966;28;20578;-84
2023/05/19 05:38:24;;;;;;;10.73;2.83;;;;;;;-145.69;97.54;52396.84;5055084;28;20211;-84
2023/05/19 05:40:51;;;;;;;8.47;2.83;;;;;;;-145.69;97.48;52418.63;5054937;28;20215;-85
2023/05/19 05:43:17;;;;;;;8.37;2.53;;;;;;;-145.69;99.57;52420.63;5056530;28;20231;-87
2023/05/19 05:45:48;;;;;;;10.47;2.40;;;;;;;-145.69;98.46;52384.97;5055969;28;20302;-86
2023/05/19 05:48:16;;;;;;;7.63;2.60;;;;;;;-145.69;96.82;52400.81;5055575;28;20242;-85
2023/05/19 05:50:44;;;;;;;8.60;2.90;;;;;;;-145.69;97.94;52412.69;5055307;28;20290;-85
2023/05/19 05:53:17;;;;;;;8.27;2.13;;;;;;;-145.69;97.82;52390.91;5055365;28;20196;-86
2023/05/19 05:55:45;;;;;;;6.60;2.80;;;;;;;-145.69;97.93;52422.59;5056278;28;20769;-86
2023/05/19 05:58:13;;;;;;;6.45;2.83;;;;;;;-145.69;98.38;52394.88;5056391;28;20249;-86
2023/05/19 06:00:42;;;;;;;9.07;2.83;;;;;;;-145.69;96.93;52369.13;5075251;28;20730;-83
2023/05/19 06:03:10;;;;;;;6.63;2.60;;;;;;;-145.69;96.19;52416.66;5074284;28;20288;-87
2023/05/19 06:05:37;;;;;;;10.03;3.07;;;;;;;-145.69;96.56;52426.56;5074867;28;20198;-82
2023/05/19 06:08:04;;;;;;;8.13;2.60;;;;;;;-145.69;94.75;52428.53;5063365;28;20673;-86
2023/05/19 06:10:31;;;;;;;9.30;3.03;;;;;;;-145.69;94.52;52384.97;5069560;28;20199;-84
2023/05/19 06:12:57;;;;;;;8.25;3.00;;;;;;;-145.69;92.15;52398.84;5074704;28;20202;-85
2023/05/19 06:15:24;;;;;;;6.38;2.50;;;;;;;-145.69;89.38;52408.75;5074600;28;20203;-85
2023/05/19 06:17:51;;;;;;;12.00;3.60;;;;;;;-145.69;87.42;52404.78;5075043;28;20203;-86
2023/05/19 06:20:19;;;;;;;5.47;2.63;;;;;;;-145.69;87.19;52379.03;5075281;28;20209;-87
2023/05/19 06:22:46;;;;;;;6.78;2.28;;;;;;;-145.69;87.15;52373.09;5075521;28;20314;-84
2023/05/19 06:25:12;;;;;;;9.02;2.97;;;;;;;-145.69;85.24;52384.97;5074722;28;20202;-87
2023/05/19 06:27:39;;;;;;;9.45;2.50;;;;;;;-145.69;86.59;52365.16;5074336;28;20294;-85
2023/05/19 06:30:07;;;;;;;7.68;2.38;;;;;;;-145.69;84.29;52394.88;5058908;28;20551;-84
2023/05/19 06:32:34;;;;;;;6.40;2.65;;;;;;;-145.69;83.80;52349.31;5055328;28;20211;-84
2023/05/19 06:35:01;;;;;;;11.00;2.38;;;;;;;-145.69;85.30;52394.88;5053812;28;20257;-83
2023/05/19 06:37:29;;;;;;;7.45;2.33;;;;;;;-145.69;84.48;52369.13;5054476;28;20203;-82
2023/05/19 06:39:55;;;;;;;9.15;2.42;;;;;;;-145.69;85.04;52396.84;5053245;28;20217;-84
2023/05/19 06:42:23;;;;;;;4.57;2.33;;;;;;;-145.69;82.71;52369.13;5053441;28;20203;-84
2023/05/19 06:44:49;;;;;;;4.40;2.47;;;;;;;-145.69;81.40;52363.19;5053712;28;20215;-84
2023/05/19 06:47:16;;;;;;;6.60;2.40;;;;;;;-145.69;79.93;52381.00;5053015;28;20195;-84
2023/05/19 06:49:42;;;;;;;5.38;2.38;;;;;;;-145.69;75.67;52357.25;5051546;28;20235;-85
2023/05/19 06:52:09;;;;;;;7.32;2.60;;;;;;;-145.69;77.39;52333.47;5035028;28;20246;-84
2023/05/19 06:54:37;;;;;;;6.88;2.45;;;;;;;-145.69;78.92;52349.31;5033259;28;20200;-84
2023/05/19 06:57:04;;;;;;;7.75;2.80;;;;;;;-145.69;71.74;52315.66;5032228;28;20623;-81
2023/05/19 06:59:31;;;;;;;5.13;2.30;;;;;;;-145.69;71.73;52337.44;5042163;28;20223;-84
2023/05/19 07:01:57;;;;;;;6.22;2.50;;;;;;;-145.69;74.26;52355.28;5053808;28;20203;-84
2023/05/19 07:04:24;;;;;;;6.75;1.83;;;;;;;-145.69;76.38;52361.22;5051558;28;20314;-84
2023/05/19 07:06:50;;;;;;;7.07;2.30;;;;;;;-145.69;75.56;52381.00;5053423;28;20202;-81
2023/05/19 07:09:17;;;;;;;4.85;2.38;;;;;;;-145.69;79.70;52388.94;5052879;28;20654;-82
2023/05/19 07:11:45;;;;;;;5.22;2.70;;;;;;;-145.69;78.94;52367.16;5053473;28;20203;-80
2023/05/19 07:14:11;;;;;;;5.43;2.15;;;;;;;-145.69;81.02;52363.19;5053732;28;20558;-85
2023/05/19 07:16:38;;;;;;;6.85;2.30;;;;;;;-145.69;85.04;52392.91;5052928;28;20206;-85
2023/05/19 07:19:04;;;;;;;4.82;2.10;;;;;;;-145.69;81.63;52390.91;5053785;28;20206;-85
2023/05/19 07:21:31;;;;;;;5.20;2.40;;;;;;;-145.69;83.26;52381.00;5053996;28;20567;-84
2023/05/19 07:23:57;;;;;;;5.57;2.38;;;;;;;-145.69;80.23;52388.94;5058216;28;20238;-85
2023/05/19 07:26:25;;;;;;;6.80;2.72;;;;;;;-145.69;80.76;52369.13;5058305;28;20203;-84
2023/05/19 07:28:53;;;;;;;5.18;2.22;;;;;;;-145.69;81.25;52377.06;5056915;28;20203;-82
2023/05/19 07:31:19;;;;;;;6.38;2.00;;;;;;;-145.69;82.08;52343.38;5058600;28;20199;-87
2023/05/19 07:33:46;;;;;;;6.43;2.20;;;;;;;-145.69;78.68;52373.09;5058881;28;20215;-86
2023/05/19 07:36:13;;;;;;;4.85;2.10;;;;;;;-145.69;79.31;52341.41;5057492;28;20195;-86
2023/05/19 07:38:39;;;;;;;6.70;2.35;;;;;;;-145.69;75.20;52367.16;5058773;28;20558;-86
2023/05/19 07:41:06;;;;;;;6.93;2.78;;;;;;;-145.69;76.09;52357.25;5057118;28;20257;-85
2023/05/19 07:43:32;;;;;;;5.65;2.28;;;;;;;-145.69;77.90;52359.22;5056661;28;20227;-83
2023/05/19 07:46:00;;;;;;;7.38;2.65;;;;;;;-145.69;78.41;52373.09;5057199;28;20200;-86
2023/05/19 07:48:28;;;;;;;10.07;3.05;;;;;;;-145.69;74.73;52353.28;5056651;28;20231;-86
2023/05/19 07:50:55;;;;;;;6.68;2.38;;;;;;;-145.69;75.03;52367.16;5056850;28;20204;-85
2023/05/19 07:53:21;;;;;;;8.27;2.20;;;;;;;-145.69;72.21;52345.38;5056938;28;20269;-86
2023/05/19 07:55:48;;;;;;;8.45;2.38;;;;;;;-145.69;70.46;52353.28;5057820;28;20290;-89
2023/05/19 07:58:15;;;;;;;6.50;2.30;;;;;;;-145.69;72.66;52333.47;5056776;28;20203;-85
2023/05/19 08:00:42;;;;;;;4.55;2.00;;;;;;;-145.69;69.46;52341.41;5066415;28;20187;-85
2023/05/19 08:03:16;;;;;;;13.27;2.33;;;;;;;-145.69;70.33;52323.59;5074705;28;20309;-85
2023/05/19 08:05:42;;;;;;;3.90;2.10;;;;;;;-145.69;67.69;52357.25;5077565;28;20202;-83
2023/05/19 08:08:10;;;;;;;4.55;2.40;;;;;;;-145.69;64.29;52333.47;5076577;28;20361;-84
2023/05/19 08:10:37;;;;;;;7.35;2.20;;;;;;;-145.69;64.74;52309.72;5078144;28;20668;-87
2023/05/19 08:13:04;;;;;;;6.18;2.17;;;;;;;-145.69;68.22;52325.56;5077229;28;20214;-86
2023/05/19 08:15:30;;;;;;;7.47;2.30;;;;;;;-145.69;64.71;52329.53;5079720;28;20264;-85
2023/05/19 08:17:57;;;;;;;5.80;1.90;;;;;;;-145.69;60.19;52293.88;5076691;28;20206;-86
2023/05/19 08:20:25;;;;;;;7.85;2.35;;;;;;;-145.69;59.71;52307.75;5078070;28;20626;-88
2023/05/19 08:22:52;;;;;;;3.92;1.88;;;;;;;-145.69;58.91;52321.59;5076553;28;20765;-86
2023/05/19 08:25:21;;;;;;;7.07;2.03;;;;;;;-145.69;63.09;52325.56;5077179;28;20565;-88
2023/05/19 08:27:48;;;;;;;3.67;1.73;;;;;;;-145.69;62.01;52357.25;5077492;28;20206;-89
2023/05/19 08:30:15;;;;;;;6.10;1.95;;;;;;;-145.69;61.64;52325.56;5072701;28;20191;-83
2023/05/19 08:32:42;;;;;;;4.45;1.70;;;;;;;-145.69;59.47;52315.66;5057154;28;20234;-87
2023/05/19 08:35:09;;;;;;;6.60;2.10;;;;;;;-145.69;59.04;52373.09;5056561;28;20647;-86
2023/05/19 08:37:37;;;;;;;5.13;2.25;;;;;;;-145.69;64.97;52333.47;5057290;28;20570;-85
2023/05/19 08:40:05;;;;;;;4.78;2.13;;;;;;;-145.69;62.78;52325.56;5072758;28;20657;-85
2023/05/19 08:42:32;;;;;;;6.40;2.63;;;;;;;-145.69;66.60;52325.56;5054805;28;20287;-88
2023/05/19 08:44:59;;;;;;;7.20;2.40;;;;;;;-145.69;64.92;52353.28;5035592;28;20330;-86
2023/05/19 08:47:26;;;;;;;5.20;2.25;;;;;;;-145.69;65.28;52331.50;5036877;28;20204;-89
2023/05/19 08:49:59;;;;;;;9.27;2.33;;;;;;;-145.69;66.38;52341.41;5037909;28;20232;-88
2023/05/19 08:52:32;;;;;;;4.45;2.17;;;;;;;-145.69;60.04;52353.28;5036025;28;20204;-85
2023/05/19 08:55:04;;;;;;;3.88;2.28;;;;;;;-145.69;65.64;52317.66;5038457;28;20210;-87
2023/05/19 08:57:32;;;;;;;4.70;2.15;;;;;;;-145.69;64.10;52301.81;5056799;28;20192;-87
2023/05/19 09:00:00;;;;;;;5.03;1.90;;;;;;;-145.69;60.79;52305.75;5060045;28;20291;-85
2023/05/19 09:02:27;;;;;;;5.60;2.22;;;;;;;-145.69;57.17;52321.59;5075332;28;20549;-88
2023/05/19 09:04:56;;;;;;;6.57;2.20;;;;;;;-145.69;58.73;52293.88;5077435;28;20232;-88
2023/05/19 09:07:24;;;;;;;3.42;2.15;;;;;;;-145.69;54.14;52270.13;5065113;28;20617;-88
2023/05/19 09:09:50;;;;;;;4.68;2.25;;;;;;;-145.69;54.19;52333.47;5056254;28;20234;-82
2023/05/19 09:12:18;;;;;;;6.15;2.20;;;;;;;-145.69;57.99;52278.03;5058358;28;20566;-87
2023/05/19 09:14:48;;;;;;;3.83;2.10;;;;;;;-145.69;54.61;52325.56;5056062;28;20563;-89
2023/05/19 09:17:15;;;;;;;5.47;2.03;;;;;;;-145.69;55.79;52299.81;5056075;28;20200;-89
2023/05/19 09:19:43;;;;;;;7.15;2.47;;;;;;;-145.69;53.32;52325.56;5056126;28;20258;-87
2023/05/19 09:22:09;;;;;;;4.28;1.90;;;;;;;-145.69;56.55;52329.53;5055890;28;20207;-87
2023/05/19 09:24:37;;;;;;;4.93;2.33;;;;;;;-145.69;58.85;52329.53;5055954;28;20269;-82
2023/05/19 09:27:04;;;;;;;5.25;2.35;;;;;;;-145.69;55.22;52341.41;5056502;28;20206;-87
2023/05/19 09:29:32;;;;;;;6.53;2.40;;;;;;;-145.69;58.76;52313.69;5055346;28;20202;-86
2023/05/19 09:31:59;;;;;;;3.55;2.08;;;;;;;-145.69;61.55;52309.72;5056364;28;20195;-86
2023/05/19 09:34:26;;;;;;;4.68;2.30;;;;;;;-145.69;59.24;52309.72;5057894;28;20215;-82
2023/05/19 09:36:53;;;;;;;5.28;2.20;;;;;;;-145.69;58.83;52305.75;5055983;28;20282;-87
2023/05/19 09:39:21;;;;;;;5.80;2.22;;;;;;;-145.69;61.62;52301.81;5056152;28;20199;-86
2023/05/19 09:41:51;;;;;;;7.50;2.53;;;;;;;-145.69;60.98;52341.41;5055460;28;20203;-84
2023/05/19 09:44:22;;;;;;;4.78;1.83;;;;;;;-145.69;65.37;52317.66;5054244;28;20223;-85
2023/05/19 09:46:51;;;;;;;7.70;2.55;;;;;;;-145.69;62.00;52347.34;5053067;28;20657;-85
2023/05/19 09:49:21;;;;;;;3.45;1.73;;;;;;;-145.69;59.19;52309.72;5054005;28;20244;-80
2023/05/19 09:51:55;;;;;;;7.18;2.17;;;;;;;-145.69;56.73;52309.72;5053294;28;20616;-89
2023/05/19 09:54:23;;;;;;;4.35;2.13;;;;;;;-145.69;60.91;52315.66;5055943;28;20246;-84
2023/05/19 09:56:57;;;;;;;4.90;2.22;;;;;;;-145.69;58.85;52317.66;5055380;28;20207;-85
2023/05/19 09:59:25;;;;;;;5.63;2.35;;;;;;;-145.69;56.00;52293.88;5055336;28;20206;-85
2023/05/19 10:01:55;;;;;;;6.85;2.47;;;;;;;-145.69;54.48;52305.75;5056317;28;20278;-86
2023/05/19 10:04:22;;;;;;;3.88;2.17;;;;;;;-145.69;53.92;52299.81;5075083;28;20227;-86
2023/05/19 10:06:52;;;;;;;6.30;2.45;;;;;;;-145.69;60.47;52317.66;5074200;28;20441;-86
2023/05/19 10:09:22;;;;;;;4.22;2.17;;;;;;;-145.69;57.96;52305.75;5074386;28;20252;-86
2023/05/19 10:11:49;;;;;;;9.15;3.65;;;;;;;-145.69;64.80;52323.59;5073118;28;20191;-85
2023/05/19 10:14:16;;;;;;;8.50;3.10;;;;;;;-145.69;70.51;52309.72;5073873;28;20565;-86
2023/05/19 10:16:44;;;;;;;8.73;3.13;;;;;;;-145.69;73.21;52289.91;5074212;28;20203;-87
2023/05/19 10:19:13;;;;;;;8.07;2.80;;;;;;;-145.69;73.14;52311.69;5074103;28;20198;-81
2023/05/19 10:21:40;;;;;;;11.57;3.10;;;;;;;-145.69;80.10;52345.38;5074436;28;20206;-87
2023/05/19 10:24:07;;;;;;;11.02;3.42;;;;;;;-145.69;78.94;52357.25;5073936;28;20238;-83
2023/05/19 10:26:35;;;;;;;9.63;3.05;;;;;;;-145.69;81.60;52331.50;5074359;28;20208;-81
2023/05/19 10:29:03;;;;;;;8.45;3.28;;;;;;;-145.69;82.26;52339.44;5074350;28;20264;-86
2023/05/19 10:31:32;;;;;;;11.90;3.10;;;;;;;-145.69;81.44;52355.28;5073446;28;20665;-88
2023/05/19 10:34:22;;;;;;;12.57;3.35;;;;;;;-145.69;79.19;52355.28;5075330;28;20641;-86
2023/05/19 10:36:53;;;;;;;10.52;2.95;;;;;;;-145.69;82.06;52339.44;5073210;28;20600;-90
2023/05/19 10:39:26;;;;;;;9.57;3.65;;;;;;;-145.69;74.63;52347.34;5067242;28;20196;-87
2023/05/19 10:42:03;;;;;;;9.80;3.58;;;;;;;-145.69;79.90;52325.56;5054392;28;20245;-84
2023/05/19 10:44:40;;;;;;;14.43;3.15;;;;;;;-145.69;79.29;52335.47;5054423;28;20230;-85
2023/05/19 10:47:10;;;;;;;7.82;3.50;;;;;;;-145.69;79.78;52337.44;5055037;28;20225;-85
2023/05/19 10:49:39;;;;;;;9.10;3.33;;;;;;;-145.69;82.56;52321.59;5053586;28;20307;-81
2023/05/19 10:52:20;;;;;;;9.55;3.28;;;;;;;-145.69;81.18;52319.63;5045883;28;20208;-82
2023/05/19 10:54:46;;;;;;;9.98;3.65;;;;;;;-145.69;79.84;52329.53;5034098;28;20208;-85
2023/05/19 10:57:15;;;;;;;10.40;3.45;;;;;;;-145.69;84.52;52327.53;5033456;28;20662;-84
2023/05/19 10:59:44;;;;;;;7.97;3.47;;;;;;;-145.69;85.45;52339.44;5034782;28;20674;-88
2023/05/19 11:02:30;;;;;;;11.98;3.40;;;;;;;-145.69;87.70;52355.28;5063806;28;20654;-84
2023/05/19 11:05:07;;;;;;;8.48;3.70;;;;;;;-145.69;86.93;52353.28;5067127;28;20562;-85
2023/05/19 11:07:34;;;;;;;11.88;4.03;;;;;;;-145.69;88.30;52339.44;5052883;28;20554;-86
2023/05/19 11:10:05;;;;;;;11.27;3.70;;;;;;;-145.69;88.26;52339.44;5062964;28;20290;-85
2023/05/19 11:12:40;;;;;;;10.90;3.72;;;;;;;-145.69;85.41;52365.16;5073651;28;20198;-87
2023/05/19 11:15:09;;;;;;;9.18;3.60;;;;;;;-145.69;86.50;52369.13;5074604;28;20248;-86
2023/05/19 11:17:40;;;;;;;8.85;3.22;;;;;;;-145.69;89.58;52355.28;5074009;28;20205;-83
2023/05/19 11:20:10;;;;;;;12.20;3.63;;;;;;;-145.69;88.82;52339.44;5073713;28;20210;-83